Terminal Aerodrome Forecast
Issued by NWS

Home | Current Version | Previous Version | Text Only | Print | Product List | Glossary On
Versions: 1 2 3 4 5 6 7 8 9 10 11 12
000
FTUS42 KTBW 220500 RRA
TAFPIE
TAF
KPIE 220541Z 2206/2306 01004KT P6SM BKN250
     FM221500 04007KT P6SM BKN250
     FM230300 05010KT P6SM SCT250=

USA.gov is the U.S. government's official web portal to all federal, state and local government web resources and services.